sensor_id;sensor_type;location;lat;lon;timestamp;temperature;humidity
14079;DHT22;7115;50.150;8.568;2023-07-13T00:01:39;21.30;81.20
14079;DHT22;7115;50.150;8.568;2023-07-13T00:04:06;21.40;81.30
14079;DHT22;7115;50.150;8.568;2023-07-13T00:06:33;21.30;81.40
14079;DHT22;7115;50.150;8.568;2023-07-13T00:09:03;21.30;81.50
14079;DHT22;7115;50.150;8.568;2023-07-13T00:11:30;21.30;82.20
14079;DHT22;7115;50.150;8.568;2023-07-13T00:13:56;21.30;81.50
14079;DHT22;7115;50.150;8.568;2023-07-13T00:16:23;21.30;81.70
14079;DHT22;7115;50.150;8.568;2023-07-13T00:18:50;21.40;81.80
14079;DHT22;7115;50.150;8.568;2023-07-13T00:21:19;21.40;81.80
14079;DHT22;7115;50.150;8.568;2023-07-13T00:23:46;21.40;81.80
14079;DHT22;7115;50.150;8.568;2023-07-13T00:26:14;21.40;82.00
14079;DHT22;7115;50.150;8.568;2023-07-13T00:28:41;21.40;82.00
14079;DHT22;7115;50.150;8.568;2023-07-13T00:31:09;21.40;82.00
14079;DHT22;7115;50.150;8.568;2023-07-13T00:33:36;21.30;82.00
14079;DHT22;7115;50.150;8.568;2023-07-13T00:36:04;21.30;82.10
14079;DHT22;7115;50.150;8.568;2023-07-13T00:38:31;21.40;82.30
14079;DHT22;7115;50.150;8.568;2023-07-13T00:40:58;21.50;82.40
14079;DHT22;7115;50.150;8.568;2023-07-13T00:43:28;21.30;83.00
14079;DHT22;7115;50.150;8.568;2023-07-13T00:46:19;21.30;82.50
14079;DHT22;7115;50.150;8.568;2023-07-13T00:48:47;21.40;83.00
14079;DHT22;7115;50.150;8.568;2023-07-13T00:51:19;21.30;82.80
14079;DHT22;7115;50.150;8.568;2023-07-13T00:53:47;21.30;82.60
14079;DHT22;7115;50.150;8.568;2023-07-13T00:56:15;21.30;82.50
14079;DHT22;7115;50.150;8.568;2023-07-13T00:58:43;21.20;83.20
14079;DHT22;7115;50.150;8.568;2023-07-13T01:01:10;21.10;82.50
14079;DHT22;7115;50.150;8.568;2023-07-13T01:03:39;21.10;82.40
14079;DHT22;7115;50.150;8.568;2023-07-13T01:06:08;21.00;82.30
14079;DHT22;7115;50.150;8.568;2023-07-13T01:08:35;20.90;82.30
14079;DHT22;7115;50.150;8.568;2023-07-13T01:11:02;20.80;82.20
14079;DHT22;7115;50.150;8.568;2023-07-13T01:13:29;20.80;82.20
14079;DHT22;7115;50.150;8.568;2023-07-13T01:16:02;20.90;82.30
14079;DHT22;7115;50.150;8.568;2023-07-13T01:18:30;20.90;82.50
14079;DHT22;7115;50.150;8.568;2023-07-13T01:21:00;20.90;82.40
14079;DHT22;7115;50.150;8.568;2023-07-13T01:23:29;21.00;82.30
14079;DHT22;7115;50.150;8.568;2023-07-13T01:25:57;21.00;82.20
14079;DHT22;7115;50.150;8.568;2023-07-13T01:28:25;21.10;82.20
14079;DHT22;7115;50.150;8.568;2023-07-13T01:30:54;21.10;82.00
14079;DHT22;7115;50.150;8.568;2023-07-13T01:33:21;21.10;81.80
14079;DHT22;7115;50.150;8.568;2023-07-13T01:35:48;21.10;81.60
14079;DHT22;7115;50.150;8.568;2023-07-13T01:38:19;21.10;81.50
14079;DHT22;7115;50.150;8.568;2023-07-13T01:40:46;21.20;81.70
14079;DHT22;7115;50.150;8.568;2023-07-13T01:43:13;21.10;81.70
14079;DHT22;7115;50.150;8.568;2023-07-13T01:45:40;21.10;81.60
14079;DHT22;7115;50.150;8.568;2023-07-13T01:48:10;21.10;82.40
14079;DHT22;7115;50.150;8.568;2023-07-13T01:50:37;21.10;81.60
14079;DHT22;7115;50.150;8.568;2023-07-13T01:53:05;21.10;81.60
14079;DHT22;7115;50.150;8.568;2023-07-13T01:55:34;21.10;81.40
14079;DHT22;7115;50.150;8.568;2023-07-13T01:58:02;21.00;81.50
14079;DHT22;7115;50.150;8.568;2023-07-13T02:00:29;21.00;81.80
14079;DHT22;7115;50.150;8.568;2023-07-13T02:02:56;21.00;82.00
14079;DHT22;7115;50.150;8.568;2023-07-13T02:05:23;21.00;82.00
14079;DHT22;7115;50.150;8.568;2023-07-13T02:07:50;20.90;81.90
14079;DHT22;7115;50.150;8.568;2023-07-13T02:10:17;20.90;82.20
14079;DHT22;7115;50.150;8.568;2023-07-13T02:12:47;20.80;81.90
14079;DHT22;7115;50.150;8.568;2023-07-13T02:15:15;20.80;82.10
14079;DHT22;7115;50.150;8.568;2023-07-13T02:17:42;20.70;82.20
14079;DHT22;7115;50.150;8.568;2023-07-13T02:20:09;20.50;82.40
14079;DHT22;7115;50.150;8.568;2023-07-13T02:22:36;20.60;82.90
14079;DHT22;7115;50.150;8.568;2023-07-13T02:25:03;20.40;82.90
14079;DHT22;7115;50.150;8.568;2023-07-13T02:27:30;20.40;83.10
14079;DHT22;7115;50.150;8.568;2023-07-13T02:29:59;20.30;83.20
14079;DHT22;7115;50.150;8.568;2023-07-13T02:32:26;20.20;83.40
14079;DHT22;7115;50.150;8.568;2023-07-13T02:34:53;20.10;83.70
14079;DHT22;7115;50.150;8.568;2023-07-13T02:37:20;20.10;83.90
14079;DHT22;7115;50.150;8.568;2023-07-13T02:39:48;20.10;84.10
14079;DHT22;7115;50.150;8.568;2023-07-13T02:42:15;20.00;84.20
14079;DHT22;7115;50.150;8.568;2023-07-13T02:44:42;20.00;84.30
14079;DHT22;7115;50.150;8.568;2023-07-13T02:47:10;20.00;84.40
14079;DHT22;7115;50.150;8.568;2023-07-13T02:49:37;20.00;84.50
14079;DHT22;7115;50.150;8.568;2023-07-13T02:52:04;20.00;84.80
14079;DHT22;7115;50.150;8.568;2023-07-13T02:54:32;19.90;84.80
14079;DHT22;7115;50.150;8.568;2023-07-13T02:56:59;19.80;84.80
14079;DHT22;7115;50.150;8.568;2023-07-13T02:59:25;19.80;84.90
14079;DHT22;7115;50.150;8.568;2023-07-13T03:01:52;19.70;85.00
14079;DHT22;7115;50.150;8.568;2023-07-13T03:04:21;19.70;84.90
14079;DHT22;7115;50.150;8.568;2023-07-13T03:06:47;19.70;84.70
14079;DHT22;7115;50.150;8.568;2023-07-13T03:09:14;19.60;84.60
14079;DHT22;7115;50.150;8.568;2023-07-13T03:11:41;19.50;85.00
14079;DHT22;7115;50.150;8.568;2023-07-13T03:14:08;19.50;84.70
14079;DHT22;7115;50.150;8.568;2023-07-13T03:16:35;19.40;84.60
14079;DHT22;7115;50.150;8.568;2023-07-13T03:19:03;19.50;84.60
14079;DHT22;7115;50.150;8.568;2023-07-13T03:21:31;19.40;84.30
14079;DHT22;7115;50.150;8.568;2023-07-13T03:23:58;19.40;84.00
14079;DHT22;7115;50.150;8.568;2023-07-13T03:26:25;19.40;83.80
14079;DHT22;7115;50.150;8.568;2023-07-13T03:28:52;19.40;83.90
14079;DHT22;7115;50.150;8.568;2023-07-13T03:31:21;19.50;84.10
14079;DHT22;7115;50.150;8.568;2023-07-13T03:33:49;19.50;84.10
14079;DHT22;7115;50.150;8.568;2023-07-13T03:36:19;19.50;84.10
14079;DHT22;7115;50.150;8.568;2023-07-13T03:38:50;19.40;84.30
14079;DHT22;7115;50.150;8.568;2023-07-13T03:41:17;19.30;84.50
14079;DHT22;7115;50.150;8.568;2023-07-13T03:43:44;19.20;84.70
14079;DHT22;7115;50.150;8.568;2023-07-13T03:46:11;18.90;84.90
14079;DHT22;7115;50.150;8.568;2023-07-13T03:48:39;19.10;85.20
14079;DHT22;7115;50.150;8.568;2023-07-13T03:51:07;19.00;85.40
14079;DHT22;7115;50.150;8.568;2023-07-13T03:56:04;19.00;85.70
14079;DHT22;7115;50.150;8.568;2023-07-13T03:58:33;19.00;85.80
14079;DHT22;7115;50.150;8.568;2023-07-13T04:01:02;19.00;85.90
14079;DHT22;7115;50.150;8.568;2023-07-13T04:03:30;18.90;86.00
14079;DHT22;7115;50.150;8.568;2023-07-13T04:05:59;18.90;86.20
14079;DHT22;7115;50.150;8.568;2023-07-13T04:08:27;18.90;86.20
14079;DHT22;7115;50.150;8.568;2023-07-13T04:10:55;18.90;86.40
14079;DHT22;7115;50.150;8.568;2023-07-13T04:13:24;18.90;86.50
14079;DHT22;7115;50.150;8.568;2023-07-13T04:15:51;19.00;86.60
14079;DHT22;7115;50.150;8.568;2023-07-13T04:18:19;19.10;87.10
14079;DHT22;7115;50.150;8.568;2023-07-13T04:20:46;19.10;86.60
14079;DHT22;7115;50.150;8.568;2023-07-13T04:23:13;19.10;86.60
14079;DHT22;7115;50.150;8.568;2023-07-13T04:25:43;19.10;86.60
14079;DHT22;7115;50.150;8.568;2023-07-13T04:28:11;19.10;86.60
14079;DHT22;7115;50.150;8.568;2023-07-13T04:30:39;19.10;86.60
14079;DHT22;7115;50.150;8.568;2023-07-13T04:33:06;19.00;86.60
14079;DHT22;7115;50.150;8.568;2023-07-13T04:35:35;19.00;86.60
14079;DHT22;7115;50.150;8.568;2023-07-13T04:38:02;19.00;86.70
14079;DHT22;7115;50.150;8.568;2023-07-13T04:40:29;19.00;86.70
14079;DHT22;7115;50.150;8.568;2023-07-13T04:42:56;19.00;86.60
14079;DHT22;7115;50.150;8.568;2023-07-13T04:45:24;19.00;86.60
14079;DHT22;7115;50.150;8.568;2023-07-13T04:47:52;19.00;86.60
14079;DHT22;7115;50.150;8.568;2023-07-13T04:50:20;19.00;86.60
14079;DHT22;7115;50.150;8.568;2023-07-13T04:52:50;19.10;86.70
14079;DHT22;7115;50.150;8.568;2023-07-13T04:55:17;19.10;86.60
14079;DHT22;7115;50.150;8.568;2023-07-13T04:57:44;19.10;86.60
14079;DHT22;7115;50.150;8.568;2023-07-13T05:00:12;19.10;86.70
14079;DHT22;7115;50.150;8.568;2023-07-13T05:02:40;19.10;86.60
14079;DHT22;7115;50.150;8.568;2023-07-13T05:05:09;19.20;86.80
14079;DHT22;7115;50.150;8.568;2023-07-13T05:07:36;19.20;86.80
14079;DHT22;7115;50.150;8.568;2023-07-13T05:10:03;19.20;86.80
14079;DHT22;7115;50.150;8.568;2023-07-13T05:12:30;19.20;86.80
14079;DHT22;7115;50.150;8.568;2023-07-13T05:14:58;19.20;86.80
14079;DHT22;7115;50.150;8.568;2023-07-13T05:17:25;19.20;86.70
14079;DHT22;7115;50.150;8.568;2023-07-13T05:19:52;19.30;86.70
14079;DHT22;7115;50.150;8.568;2023-07-13T05:22:20;19.30;86.60
14079;DHT22;7115;50.150;8.568;2023-07-13T05:24:47;19.40;86.50
14079;DHT22;7115;50.150;8.568;2023-07-13T05:27:14;19.50;86.20
14079;DHT22;7115;50.150;8.568;2023-07-13T05:29:41;19.60;85.90
14079;DHT22;7115;50.150;8.568;2023-07-13T05:32:07;19.70;85.70
14079;DHT22;7115;50.150;8.568;2023-07-13T05:34:34;19.70;85.40
14079;DHT22;7115;50.150;8.568;2023-07-13T05:37:01;19.80;85.90
14079;DHT22;7115;50.150;8.568;2023-07-13T05:39:29;19.90;84.80
14079;DHT22;7115;50.150;8.568;2023-07-13T05:41:56;20.00;85.30
14079;DHT22;7115;50.150;8.568;2023-07-13T05:44:23;20.00;84.10
14079;DHT22;7115;50.150;8.568;2023-07-13T05:46:51;20.00;84.20
14079;DHT22;7115;50.150;8.568;2023-07-13T05:49:18;20.00;84.40
14079;DHT22;7115;50.150;8.568;2023-07-13T05:51:45;20.10;84.60
14079;DHT22;7115;50.150;8.568;2023-07-13T05:54:12;20.20;84.70
14079;DHT22;7115;50.150;8.568;2023-07-13T05:56:40;20.20;84.50
14079;DHT22;7115;50.150;8.568;2023-07-13T05:59:08;20.20;84.40
14079;DHT22;7115;50.150;8.568;2023-07-13T06:01:35;20.30;84.10
14079;DHT22;7115;50.150;8.568;2023-07-13T06:04:02;20.40;84.00
14079;DHT22;7115;50.150;8.568;2023-07-13T06:06:29;20.50;83.80
14079;DHT22;7115;50.150;8.568;2023-07-13T06:08:56;20.50;83.50
14079;DHT22;7115;50.150;8.568;2023-07-13T06:11:24;20.40;83.30
14079;DHT22;7115;50.150;8.568;2023-07-13T06:13:52;20.50;83.30
14079;DHT22;7115;50.150;8.568;2023-07-13T06:16:20;20.50;83.30
14079;DHT22;7115;50.150;8.568;2023-07-13T06:18:47;20.50;83.20
14079;DHT22;7115;50.150;8.568;2023-07-13T06:21:15;20.60;83.20
14079;DHT22;7115;50.150;8.568;2023-07-13T06:23:43;20.70;83.20
14079;DHT22;7115;50.150;8.568;2023-07-13T06:26:11;20.70;83.00
14079;DHT22;7115;50.150;8.568;2023-07-13T06:28:38;20.80;82.80
14079;DHT22;7115;50.150;8.568;2023-07-13T06:31:08;20.90;82.60
14079;DHT22;7115;50.150;8.568;2023-07-13T06:33:37;21.00;82.30
14079;DHT22;7115;50.150;8.568;2023-07-13T06:36:05;21.10;81.90
14079;DHT22;7115;50.150;8.568;2023-07-13T06:38:32;21.20;81.50
14079;DHT22;7115;50.150;8.568;2023-07-13T06:40:59;21.30;81.00
14079;DHT22;7115;50.150;8.568;2023-07-13T06:43:26;21.20;80.70
14079;DHT22;7115;50.150;8.568;2023-07-13T06:45:55;21.40;80.50
14079;DHT22;7115;50.150;8.568;2023-07-13T06:48:24;21.50;80.40
14079;DHT22;7115;50.150;8.568;2023-07-13T06:50:51;21.60;80.20
14079;DHT22;7115;50.150;8.568;2023-07-13T06:53:20;21.70;80.10
14079;DHT22;7115;50.150;8.568;2023-07-13T06:55:48;21.70;79.80
14079;DHT22;7115;50.150;8.568;2023-07-13T06:58:16;21.70;79.70
14079;DHT22;7115;50.150;8.568;2023-07-13T07:00:44;21.80;79.70
14079;DHT22;7115;50.150;8.568;2023-07-13T07:03:11;21.90;79.50
14079;DHT22;7115;50.150;8.568;2023-07-13T07:05:39;21.90;79.30
14079;DHT22;7115;50.150;8.568;2023-07-13T07:08:06;21.90;79.20
14079;DHT22;7115;50.150;8.568;2023-07-13T07:10:34;22.00;79.50
14079;DHT22;7115;50.150;8.568;2023-07-13T07:13:01;22.10;79.00
14079;DHT22;7115;50.150;8.568;2023-07-13T07:15:28;22.10;78.50
14079;DHT22;7115;50.150;8.568;2023-07-13T07:17:55;22.20;78.40
14079;DHT22;7115;50.150;8.568;2023-07-13T07:20:22;22.20;78.00
14079;DHT22;7115;50.150;8.568;2023-07-13T07:22:51;22.40;77.70
14079;DHT22;7115;50.150;8.568;2023-07-13T07:25:18;22.50;77.30
14079;DHT22;7115;50.150;8.568;2023-07-13T07:27:45;22.70;77.10
14079;DHT22;7115;50.150;8.568;2023-07-13T07:30:15;22.90;76.80
14079;DHT22;7115;50.150;8.568;2023-07-13T07:32:45;23.00;76.30
14079;DHT22;7115;50.150;8.568;2023-07-13T07:35:15;23.10;76.00
14079;DHT22;7115;50.150;8.568;2023-07-13T07:37:41;23.30;75.70
14079;DHT22;7115;50.150;8.568;2023-07-13T07:40:13;23.30;75.20
14079;DHT22;7115;50.150;8.568;2023-07-13T07:42:43;23.40;75.20
14079;DHT22;7115;50.150;8.568;2023-07-13T07:45:10;23.50;75.00
14079;DHT22;7115;50.150;8.568;2023-07-13T07:47:38;23.70;74.70
14079;DHT22;7115;50.150;8.568;2023-07-13T07:50:06;23.70;74.30
14079;DHT22;7115;50.150;8.568;2023-07-13T07:52:33;23.80;73.90
14079;DHT22;7115;50.150;8.568;2023-07-13T07:55:00;24.00;73.60
14079;DHT22;7115;50.150;8.568;2023-07-13T07:57:31;24.00;73.20
14079;DHT22;7115;50.150;8.568;2023-07-13T08:00:18;24.10;72.40
14079;DHT22;7115;50.150;8.568;2023-07-13T08:02:48;24.10;71.80
14079;DHT22;7115;50.150;8.568;2023-07-13T08:05:18;24.10;71.30
14079;DHT22;7115;50.150;8.568;2023-07-13T08:07:48;24.10;71.00
14079;DHT22;7115;50.150;8.568;2023-07-13T08:10:17;24.10;70.70
14079;DHT22;7115;50.150;8.568;2023-07-13T08:12:45;24.20;70.40
14079;DHT22;7115;50.150;8.568;2023-07-13T08:15:32;24.20;69.90
14079;DHT22;7115;50.150;8.568;2023-07-13T08:17:59;24.30;69.80
14079;DHT22;7115;50.150;8.568;2023-07-13T08:20:26;24.40;69.70
14079;DHT22;7115;50.150;8.568;2023-07-13T08:22:53;24.50;69.40
14079;DHT22;7115;50.150;8.568;2023-07-13T08:25:20;24.40;68.90
14079;DHT22;7115;50.150;8.568;2023-07-13T08:27:49;24.40;68.90
14079;DHT22;7115;50.150;8.568;2023-07-13T08:30:17;24.40;68.50
14079;DHT22;7115;50.150;8.568;2023-07-13T08:32:43;24.20;68.30
14079;DHT22;7115;50.150;8.568;2023-07-13T08:35:11;24.30;68.40
14079;DHT22;7115;50.150;8.568;2023-07-13T08:37:38;24.40;68.40
14079;DHT22;7115;50.150;8.568;2023-07-13T08:40:07;24.60;68.20
14079;DHT22;7115;50.150;8.568;2023-07-13T08:42:39;24.60;67.90
14079;DHT22;7115;50.150;8.568;2023-07-13T08:45:19;24.80;67.60
14079;DHT22;7115;50.150;8.568;2023-07-13T08:47:51;25.00;66.90
14079;DHT22;7115;50.150;8.568;2023-07-13T08:50:23;24.90;66.40
14079;DHT22;7115;50.150;8.568;2023-07-13T08:52:51;25.00;66.30
14079;DHT22;7115;50.150;8.568;2023-07-13T08:55:21;25.10;66.10
14079;DHT22;7115;50.150;8.568;2023-07-13T08:57:54;25.10;66.90
14079;DHT22;7115;50.150;8.568;2023-07-13T09:00:34;25.10;65.80
14079;DHT22;7115;50.150;8.568;2023-07-13T09:03:05;25.10;65.40
14079;DHT22;7115;50.150;8.568;2023-07-13T09:05:40;25.00;65.50
14079;DHT22;7115;50.150;8.568;2023-07-13T09:08:25;25.00;65.50
14079;DHT22;7115;50.150;8.568;2023-07-13T09:11:01;25.00;65.20
14079;DHT22;7115;50.150;8.568;2023-07-13T09:13:42;25.00;65.30
14079;DHT22;7115;50.150;8.568;2023-07-13T09:16:11;25.10;65.00
14079;DHT22;7115;50.150;8.568;2023-07-13T09:18:43;25.00;64.70
14079;DHT22;7115;50.150;8.568;2023-07-13T09:21:13;24.90;64.70
14079;DHT22;7115;50.150;8.568;2023-07-13T09:23:41;25.00;65.00
14079;DHT22;7115;50.150;8.568;2023-07-13T09:26:12;25.30;65.20
14079;DHT22;7115;50.150;8.568;2023-07-13T09:28:43;25.30;64.60
14079;DHT22;7115;50.150;8.568;2023-07-13T09:31:14;25.60;64.60
14079;DHT22;7115;50.150;8.568;2023-07-13T09:33:42;25.80;64.40
14079;DHT22;7115;50.150;8.568;2023-07-13T09:36:19;25.90;64.00
14079;DHT22;7115;50.150;8.568;2023-07-13T09:38:47;26.10;63.60
14079;DHT22;7115;50.150;8.568;2023-07-13T09:41:20;26.10;63.00
14079;DHT22;7115;50.150;8.568;2023-07-13T09:44:07;26.10;62.40
14079;DHT22;7115;50.150;8.568;2023-07-13T09:46:43;26.20;62.10
14079;DHT22;7115;50.150;8.568;2023-07-13T09:49:11;26.20;62.10
14079;DHT22;7115;50.150;8.568;2023-07-13T09:51:40;26.30;61.80
14079;DHT22;7115;50.150;8.568;2023-07-13T09:54:18;26.30;61.40
14079;DHT22;7115;50.150;8.568;2023-07-13T09:56:45;26.30;61.10
14079;DHT22;7115;50.150;8.568;2023-07-13T09:59:19;26.30;61.20
14079;DHT22;7115;50.150;8.568;2023-07-13T10:01:47;26.50;61.10
14079;DHT22;7115;50.150;8.568;2023-07-13T10:04:18;26.60;60.90
14079;DHT22;7115;50.150;8.568;2023-07-13T10:06:45;26.60;60.50
14079;DHT22;7115;50.150;8.568;2023-07-13T10:09:15;26.60;60.50
14079;DHT22;7115;50.150;8.568;2023-07-13T10:11:42;26.50;60.30
14079;DHT22;7115;50.150;8.568;2023-07-13T10:14:14;26.40;60.60
14079;DHT22;7115;50.150;8.568;2023-07-13T10:16:43;26.30;60.80
14079;DHT22;7115;50.150;8.568;2023-07-13T10:19:14;26.30;60.80
14079;DHT22;7115;50.150;8.568;2023-07-13T10:21:50;26.40;60.80
14079;DHT22;7115;50.150;8.568;2023-07-13T10:24:21;26.50;60.90
14079;DHT22;7115;50.150;8.568;2023-07-13T10:26:53;26.60;60.80
14079;DHT22;7115;50.150;8.568;2023-07-13T10:29:23;26.70;60.50
14079;DHT22;7115;50.150;8.568;2023-07-13T10:31:52;26.70;60.20
14079;DHT22;7115;50.150;8.568;2023-07-13T10:34:20;26.50;60.30
14079;DHT22;7115;50.150;8.568;2023-07-13T10:36:49;26.50;60.30
14079;DHT22;7115;50.150;8.568;2023-07-13T10:39:18;26.60;60.00
14079;DHT22;7115;50.150;8.568;2023-07-13T10:41:50;26.70;59.60
14079;DHT22;7115;50.150;8.568;2023-07-13T10:44:22;27.00;59.40
14079;DHT22;7115;50.150;8.568;2023-07-13T10:46:55;27.00;59.60
14079;DHT22;7115;50.150;8.568;2023-07-13T10:49:26;27.00;59.00
14079;DHT22;7115;50.150;8.568;2023-07-13T10:51:54;27.00;59.00
14079;DHT22;7115;50.150;8.568;2023-07-13T10:54:27;27.00;58.80
14079;DHT22;7115;50.150;8.568;2023-07-13T10:57:16;26.90;58.70
14079;DHT22;7115;50.150;8.568;2023-07-13T10:59:46;26.90;58.80
14079;DHT22;7115;50.150;8.568;2023-07-13T11:02:23;27.00;58.80
14079;DHT22;7115;50.150;8.568;2023-07-13T11:04:55;27.20;58.50
14079;DHT22;7115;50.150;8.568;2023-07-13T11:07:26;27.20;57.80
14079;DHT22;7115;50.150;8.568;2023-07-13T11:09:55;27.10;57.70
14079;DHT22;7115;50.150;8.568;2023-07-13T11:15:28;26.90;58.00
14079;DHT22;7115;50.150;8.568;2023-07-13T11:17:56;27.00;58.30
14079;DHT22;7115;50.150;8.568;2023-07-13T11:20:37;27.00;58.40
14079;DHT22;7115;50.150;8.568;2023-07-13T11:23:20;27.20;58.40
14079;DHT22;7115;50.150;8.568;2023-07-13T11:25:53;27.20;58.20
14079;DHT22;7115;50.150;8.568;2023-07-13T11:28:25;27.20;58.30
14079;DHT22;7115;50.150;8.568;2023-07-13T11:31:03;27.30;58.20
14079;DHT22;7115;50.150;8.568;2023-07-13T11:33:53;27.30;57.80
14079;DHT22;7115;50.150;8.568;2023-07-13T11:36:24;27.20;57.60
14079;DHT22;7115;50.150;8.568;2023-07-13T11:38:58;27.20;57.80
14079;DHT22;7115;50.150;8.568;2023-07-13T11:41:28;27.00;57.90
14079;DHT22;7115;50.150;8.568;2023-07-13T11:44:10;26.90;57.80
14079;DHT22;7115;50.150;8.568;2023-07-13T11:46:37;26.90;57.80
14079;DHT22;7115;50.150;8.568;2023-07-13T11:49:05;26.70;57.80
14079;DHT22;7115;50.150;8.568;2023-07-13T11:51:35;26.80;58.00
14079;DHT22;7115;50.150;8.568;2023-07-13T11:54:05;26.70;57.80
14079;DHT22;7115;50.150;8.568;2023-07-13T11:56:34;26.70;57.60
14079;DHT22;7115;50.150;8.568;2023-07-13T11:59:05;26.80;57.60
14079;DHT22;7115;50.150;8.568;2023-07-13T12:01:34;26.80;57.50
14079;DHT22;7115;50.150;8.568;2023-07-13T12:04:04;26.80;57.30
14079;DHT22;7115;50.150;8.568;2023-07-13T12:06:35;26.80;57.30
14079;DHT22;7115;50.150;8.568;2023-07-13T12:09:11;26.90;57.50
14079;DHT22;7115;50.150;8.568;2023-07-13T12:11:43;26.90;57.40
14079;DHT22;7115;50.150;8.568;2023-07-13T12:14:14;27.00;57.30
14079;DHT22;7115;50.150;8.568;2023-07-13T12:16:43;26.90;57.20
14079;DHT22;7115;50.150;8.568;2023-07-13T12:19:17;27.00;57.40
14079;DHT22;7115;50.150;8.568;2023-07-13T12:21:46;26.90;57.40
14079;DHT22;7115;50.150;8.568;2023-07-13T12:24:17;26.80;57.50
14079;DHT22;7115;50.150;8.568;2023-07-13T12:26:51;26.90;57.70
14079;DHT22;7115;50.150;8.568;2023-07-13T12:29:18;27.00;57.70
14079;DHT22;7115;50.150;8.568;2023-07-13T12:31:46;26.90;57.50
14079;DHT22;7115;50.150;8.568;2023-07-13T12:34:15;26.80;57.50
14079;DHT22;7115;50.150;8.568;2023-07-13T12:36:48;26.80;57.30
14079;DHT22;7115;50.150;8.568;2023-07-13T12:39:19;26.80;57.20
14079;DHT22;7115;50.150;8.568;2023-07-13T12:41:47;26.80;57.10
14079;DHT22;7115;50.150;8.568;2023-07-13T12:44:16;26.80;57.40
14079;DHT22;7115;50.150;8.568;2023-07-13T12:46:56;27.00;57.40
14079;DHT22;7115;50.150;8.568;2023-07-13T12:49:27;27.20;56.70
14079;DHT22;7115;50.150;8.568;2023-07-13T12:52:02;27.10;56.40
14079;DHT22;7115;50.150;8.568;2023-07-13T12:54:30;26.90;56.40
14079;DHT22;7115;50.150;8.568;2023-07-13T12:56:59;26.80;56.80
14079;DHT22;7115;50.150;8.568;2023-07-13T12:59:30;26.80;56.90
14079;DHT22;7115;50.150;8.568;2023-07-13T13:01:59;26.80;57.00
14079;DHT22;7115;50.150;8.568;2023-07-13T13:04:27;26.80;56.80
14079;DHT22;7115;50.150;8.568;2023-07-13T13:07:04;26.60;56.80
14079;DHT22;7115;50.150;8.568;2023-07-13T13:09:33;26.50;57.00
14079;DHT22;7115;50.150;8.568;2023-07-13T13:12:03;26.50;57.00
14079;DHT22;7115;50.150;8.568;2023-07-13T13:14:30;26.50;57.00
14079;DHT22;7115;50.150;8.568;2023-07-13T13:16:57;26.50;57.20
14079;DHT22;7115;50.150;8.568;2023-07-13T13:19:26;26.50;57.50
14079;DHT22;7115;50.150;8.568;2023-07-13T13:21:55;26.60;57.50
14079;DHT22;7115;50.150;8.568;2023-07-13T13:24:27;26.50;57.10
14079;DHT22;7115;50.150;8.568;2023-07-13T13:26:54;26.50;57.20
14079;DHT22;7115;50.150;8.568;2023-07-13T13:29:24;26.50;57.10
14079;DHT22;7115;50.150;8.568;2023-07-13T13:31:52;26.50;57.00
14079;DHT22;7115;50.150;8.568;2023-07-13T13:34:21;26.60;57.10
14079;DHT22;7115;50.150;8.568;2023-07-13T13:36:51;26.60;57.00
14079;DHT22;7115;50.150;8.568;2023-07-13T13:39:25;26.60;56.90
14079;DHT22;7115;50.150;8.568;2023-07-13T13:41:54;26.60;56.80
14079;DHT22;7115;50.150;8.568;2023-07-13T13:44:22;26.60;56.80
14079;DHT22;7115;50.150;8.568;2023-07-13T13:46:51;26.60;56.80
14079;DHT22;7115;50.150;8.568;2023-07-13T13:49:20;26.50;56.90
14079;DHT22;7115;50.150;8.568;2023-07-13T13:51:48;26.50;57.10
14079;DHT22;7115;50.150;8.568;2023-07-13T13:54:16;26.50;57.20
14079;DHT22;7115;50.150;8.568;2023-07-13T13:56:46;26.50;57.20
14079;DHT22;7115;50.150;8.568;2023-07-13T13:59:14;26.60;57.50
14079;DHT22;7115;50.150;8.568;2023-07-13T14:01:42;26.60;57.50
14079;DHT22;7115;50.150;8.568;2023-07-13T14:04:14;26.70;57.30
14079;DHT22;7115;50.150;8.568;2023-07-13T14:06:42;26.60;57.50
14079;DHT22;7115;50.150;8.568;2023-07-13T14:09:10;26.60;57.60
14079;DHT22;7115;50.150;8.568;2023-07-13T14:11:39;26.70;57.90
14079;DHT22;7115;50.150;8.568;2023-07-13T14:14:14;26.80;58.10
14079;DHT22;7115;50.150;8.568;2023-07-13T14:16:42;26.70;58.30
14079;DHT22;7115;50.150;8.568;2023-07-13T14:19:12;26.70;58.40
14079;DHT22;7115;50.150;8.568;2023-07-13T14:21:40;26.60;58.60
14079;DHT22;7115;50.150;8.568;2023-07-13T14:24:07;26.60;58.80
14079;DHT22;7115;50.150;8.568;2023-07-13T14:26:37;26.50;58.90
14079;DHT22;7115;50.150;8.568;2023-07-13T14:29:13;26.40;59.00
14079;DHT22;7115;50.150;8.568;2023-07-13T14:31:41;26.30;59.00
14079;DHT22;7115;50.150;8.568;2023-07-13T14:34:10;26.30;59.00
14079;DHT22;7115;50.150;8.568;2023-07-13T14:36:39;26.40;59.20
14079;DHT22;7115;50.150;8.568;2023-07-13T14:39:12;26.50;59.30
14079;DHT22;7115;50.150;8.568;2023-07-13T14:41:39;26.30;59.00
14079;DHT22;7115;50.150;8.568;2023-07-13T14:44:12;26.20;59.00
14079;DHT22;7115;50.150;8.568;2023-07-13T14:46:40;26.20;59.00
14079;DHT22;7115;50.150;8.568;2023-07-13T14:49:15;26.30;59.10
14079;DHT22;7115;50.150;8.568;2023-07-13T14:51:47;26.40;59.20
14079;DHT22;7115;50.150;8.568;2023-07-13T14:54:14;26.50;59.70
14079;DHT22;7115;50.150;8.568;2023-07-13T14:56:41;26.40;58.80
14079;DHT22;7115;50.150;8.568;2023-07-13T14:59:08;26.40;58.70
14079;DHT22;7115;50.150;8.568;2023-07-13T15:01:37;26.30;58.70
14079;DHT22;7115;50.150;8.568;2023-07-13T15:04:04;26.40;58.90
14079;DHT22;7115;50.150;8.568;2023-07-13T15:06:35;26.40;58.80
14079;DHT22;7115;50.150;8.568;2023-07-13T15:09:18;26.50;59.00
14079;DHT22;7115;50.150;8.568;2023-07-13T15:11:45;26.50;58.90
14079;DHT22;7115;50.150;8.568;2023-07-13T15:14:12;26.50;58.90
14079;DHT22;7115;50.150;8.568;2023-07-13T15:16:40;26.60;58.90
14079;DHT22;7115;50.150;8.568;2023-07-13T15:19:09;26.60;58.80
14079;DHT22;7115;50.150;8.568;2023-07-13T15:21:37;26.60;58.70
14079;DHT22;7115;50.150;8.568;2023-07-13T15:24:04;26.60;58.60
14079;DHT22;7115;50.150;8.568;2023-07-13T15:26:35;26.50;58.50
14079;DHT22;7115;50.150;8.568;2023-07-13T15:29:02;26.50;59.20
14079;DHT22;7115;50.150;8.568;2023-07-13T15:31:29;26.60;58.60
14079;DHT22;7115;50.150;8.568;2023-07-13T15:34:00;26.50;58.30
14079;DHT22;7115;50.150;8.568;2023-07-13T15:36:27;26.50;58.10
14079;DHT22;7115;50.150;8.568;2023-07-13T15:38:55;26.60;58.10
14079;DHT22;7115;50.150;8.568;2023-07-13T15:41:23;26.60;58.00
14079;DHT22;7115;50.150;8.568;2023-07-13T15:43:52;26.60;57.80
14079;DHT22;7115;50.150;8.568;2023-07-13T15:46:20;26.60;57.70
14079;DHT22;7115;50.150;8.568;2023-07-13T15:48:48;26.60;57.70
14079;DHT22;7115;50.150;8.568;2023-07-13T15:51:22;26.50;57.70
14079;DHT22;7115;50.150;8.568;2023-07-13T15:53:50;26.40;57.70
14079;DHT22;7115;50.150;8.568;2023-07-13T15:56:20;26.30;57.80
14079;DHT22;7115;50.150;8.568;2023-07-13T15:58:48;26.30;57.90
14079;DHT22;7115;50.150;8.568;2023-07-13T16:01:16;26.30;58.00
14079;DHT22;7115;50.150;8.568;2023-07-13T16:03:43;26.30;58.80